Carousel Center, New York
Current Conditions -  °F | °C
As of 12:54 PM on Saturday 22 Nov 2014 (Local Time) from KSYR Reporting Station
Light Rain Light Rain  
Wind Chill: 34°   Ceiling: 5000
Heat Index: 40°   Visibility: 10mi
Dew Point: 16°   Wind: 9mph
Humidity: 38%   Direction: 190°S
Pressure: 30.1"   Gusts: NA
Location:  43.0685°N, 76.1709°W
Report Text: KSYR 221754Z 19008KT 10SM -RA OVC050 04/M09 A3010 RMK AO2 RAB42 SLP193 P0000 60000 T00441089 10056 21033 56046 $
Loading
Personal Weather Stations






























Interactive Weather Map New forecast layout! Learn more

10-Day Weather Forecast

Advertisements
Track Severe Weather on mobile